Aérodrome :
LOGIN :

S'inscrire | Disclaimer

   EN    FR    IT 

 










Légende :    VFR   VFR Marginal   IFR   IFR Intensif   IFR Très Intensif
Visi : 
Plafond : 
>= 8 km
>= 3000ft
5 à 8 km
1000 à 3000 ft
1500m à 5 km
500 à 1000 ft
800 à 1500m
200 à 500 ft
< 800m
< 200 ft
Symboles :   Orages  Brouillard  Fortes neiges  Fortes précipitations  Vent > 20 kt
SIGMETs :   Divers  Orages  Givrage  Turbulence  Onde Orograph.  Cendres Volcan.






- Altitude de l'aérodrome : 353 ft
- Code IATA : LIN


LIML - Milano Linate

DERNIER METAR :
  • 141250Z 22004KT 180V300 CAVOK 28/15 Q1021 NOSIG

METARs EXPIRÉS :
  • 141220Z 21003KT 130V270 CAVOK 27/16 Q1022 NOSIG
  • 141150Z VRB03KT CAVOK 26/15 Q1022 NOSIG
  • 141120Z 18003KT 080V230 CAVOK 26/16 Q1023 NOSIG
  • 141050Z VRB04KT CAVOK 25/15 Q1023 NOSIG
  • 141020Z VRB02KT CAVOK 25/16 Q1023 NOSIG
  • 140950Z VRB04KT CAVOK 24/16 Q1023 NOSIG
  • 140920Z 15004KT 090V190 CAVOK 23/16 Q1024 NOSIG
  • 140850Z 15003KT 110V180 CAVOK 22/16 Q1024 NOSIG
  • 140820Z VRB01KT CAVOK 22/15 Q1024 NOSIG
  • 140750Z 11002KT CAVOK 20/15 Q1024 NOSIG

TAF TAF LIML
Valide du 14 à 12h jusqu'au 15 à 12h UTC


141100Z 1412/1512 VRB05KT CAVOK
BECMG 1414/1416 24010KT
BECMG 1418/1420 VRB05KT



MET'MAP, la Météo Aéronautique d'un coup d'oeil ! - Copyright ORBIFLY Décembre 2007 - Disclaimer

ORBIFLY MET'MAP TEAM :

Programmation & Développement : Alexandra Zaïnal
Sur une idée originale de : Baudouin d'Aumeries
Soutien technique & logistique : Manuel Goepfert
Assistance : Marc-Olivier Méhu




SOURCES & CREDITS :

   NOAA